createdAt,value
2023-04-02T04:49:13.496Z,99575.75
2023-04-02T04:50:32.406Z,99574.84
2023-04-02T04:51:50.950Z,99574.19
2023-04-02T06:38:31.391Z,99613.31
2023-04-02T06:39:39.507Z,99614.91
2023-04-02T06:40:53.756Z,99606.94
2023-04-02T06:42:20.005Z,99606.03
2023-04-02T06:43:56.498Z,99613.34
2023-04-02T06:45:37.312Z,99612.63
2023-04-02T06:47:08.542Z,99615.09
2023-04-02T06:48:17.496Z,99613.00
2023-04-02T06:49:27.704Z,99617.06
2023-04-02T06:50:43.637Z,99611.91
2023-04-02T06:51:52.858Z,99610.34
2023-04-02T06:53:01.773Z,99606.50
2023-04-02T06:54:05.042Z,99620.69
2023-04-02T06:55:25.358Z,99616.75
2023-04-02T06:56:50.242Z,99612.03
2023-04-02T06:58:02.416Z,99627.06
2023-04-02T06:59:11.037Z,99624.25
2023-04-02T07:00:54.746Z,99621.03
2023-04-02T07:02:18.552Z,99619.84
2023-04-02T07:03:26.218Z,99623.81
2023-04-02T07:04:31.754Z,99609.53
2023-04-02T07:05:37.070Z,99616.69
2023-04-02T07:06:40.195Z,99618.28
2023-04-02T07:07:47.236Z,99619.84
2023-04-02T07:08:53.505Z,99618.31
2023-04-02T07:09:58.336Z,99624.66
2023-04-02T07:11:05.333Z,99617.19
2023-04-02T07:12:14.761Z,99614.78
2023-04-02T07:13:26.230Z,99618.75
2023-04-02T07:14:34.249Z,99619.53
2023-04-02T07:15:38.511Z,99614.38
2023-04-02T07:18:11.273Z,99616.00
2023-04-02T07:19:25.281Z,99619.53
2023-04-02T07:20:42.598Z,99619.88
2023-04-02T07:24:10.735Z,99622.66
2023-04-02T07:25:14.439Z,99629.34
2023-04-02T07:26:29.208Z,99631.78
2023-04-02T07:27:40.446Z,99632.13
2023-04-02T07:28:49.600Z,99631.41
2023-04-02T07:29:57.815Z,99631.72
2023-04-02T07:31:04.788Z,99634.91
2023-04-02T07:32:17.483Z,99632.97
2023-04-02T07:33:36.373Z,99638.84
2023-04-02T07:36:20.946Z,99635.63
2023-04-02T07:37:31.766Z,99642.78
2023-04-02T07:38:38.402Z,99642.72
2023-04-02T07:39:42.170Z,99639.19
2023-04-02T07:40:45.663Z,99645.09
2023-04-02T07:41:59.285Z,99635.59
2023-04-02T07:43:03.973Z,99633.31
2023-04-02T07:44:22.499Z,99631.75
2023-04-02T07:45:52.410Z,99628.59
2023-04-02T07:46:56.766Z,99633.38
2023-04-02T07:48:10.424Z,99640.91
2023-04-02T07:49:18.954Z,99631.41
2023-04-02T07:50:24.366Z,99633.38
2023-04-02T07:51:48.392Z,99634.91
2023-04-02T07:54:04.389Z,99642.81
2023-04-02T07:55:27.306Z,99649.97
2023-04-02T07:58:00.768Z,99639.63
2023-04-02T07:59:10.570Z,99639.28
2023-04-02T08:00:21.555Z,99642.09
2023-04-02T08:31:35.516Z,99658.56
2023-04-02T08:34:14.176Z,99659.81
2023-04-02T08:39:20.478Z,99662.94
2023-04-02T08:40:42.790Z,99666.50
2023-04-02T08:43:07.494Z,99666.44
2023-04-02T08:59:25.199Z,99652.34
2023-04-02T09:02:09.125Z,99656.91
2023-04-02T09:10:53.648Z,99652.75
2023-04-02T09:12:49.817Z,99659.81
2023-04-02T09:19:39.694Z,99664.94
2023-04-02T09:24:05.300Z,99660.66
2023-04-02T09:26:36.171Z,99658.66
2023-04-02T09:31:02.838Z,99661.88
2023-04-02T09:34:29.299Z,99668.59
2023-04-02T09:46:54.264Z,99671.81
2023-04-02T09:51:29.917Z,99672.28
2023-04-02T09:53:45.610Z,99674.22
2023-04-02T09:57:56.047Z,99669.38
2023-04-02T10:02:14.843Z,99666.78
2023-04-02T10:15:54.801Z,99667.72
2023-04-02T10:17:47.072Z,99672.84
2023-04-02T10:20:05.467Z,99666.06
2023-04-02T10:21:37.498Z,99671.19
2023-04-02T10:22:49.374Z,99662.13
2023-04-02T10:26:05.672Z,99679.50
2023-04-02T10:30:28.840Z,99666.50
2023-04-02T10:37:13.298Z,99662.22
2023-04-02T10:38:52.614Z,99670.91
2023-04-02T10:40:04.869Z,99663.41
2023-04-02T10:41:56.662Z,99662.66
2023-04-02T10:43:34.061Z,99662.25
2023-04-02T10:49:18.510Z,99658.25
2023-04-02T10:53:35.323Z,99662.97
2023-04-02T10:55:08.103Z,99655.13
2023-04-02T10:56:23.104Z,99655.50
2023-04-02T10:59:48.280Z,99647.59
2023-04-02T11:01:18.839Z,99666.53
2023-04-02T11:03:21.675Z,99655.06
2023-04-02T11:05:22.257Z,99651.94
2023-04-02T11:08:48.013Z,99651.88
2023-04-02T11:10:37.628Z,99644.31
2023-04-02T11:12:03.435Z,99655.03
2023-04-02T11:13:40.648Z,99656.69
2023-04-02T11:15:02.877Z,99648.34
2023-04-02T11:16:19.030Z,99644.03
2023-04-02T11:19:23.909Z,99642.00
2023-04-02T11:21:07.632Z,99642.38
2023-04-02T11:22:26.335Z,99645.56
2023-04-02T11:24:03.929Z,99644.81
2023-04-02T11:25:43.026Z,99640.06
2023-04-02T11:26:56.369Z,99648.38
2023-04-02T11:28:25.312Z,99639.31
2023-04-02T11:29:53.959Z,99632.16
2023-04-02T11:31:00.504Z,99640.50
2023-04-02T11:32:43.789Z,99648.78
2023-04-02T11:34:15.963Z,99634.50
2023-04-02T11:35:32.651Z,99641.66
2023-04-02T11:37:02.932Z,99637.66
2023-04-02T11:38:39.699Z,99640.84
2023-04-02T11:43:53.670Z,99645.56
2023-04-02T11:47:21.971Z,99646.34
2023-04-02T11:48:42.292Z,99643.53
2023-04-02T11:50:09.655Z,99653.47
2023-04-02T11:51:36.669Z,99644.78
2023-04-02T11:52:55.610Z,99645.56
2023-04-02T11:54:31.896Z,99642.41
2023-04-02T11:55:45.729Z,99642.78
2023-04-02T11:57:34.719Z,99640.03
2023-04-02T11:59:16.862Z,99636.47
2023-04-02T12:01:08.796Z,99641.59
2023-04-02T12:02:18.143Z,99642.00
2023-04-02T12:03:32.635Z,99632.84
2023-04-02T12:05:03.603Z,99636.81
2023-04-02T12:06:26.184Z,99640.78
2023-04-02T12:07:49.119Z,99642.03
2023-04-02T12:09:10.236Z,99637.22
2023-04-02T12:10:40.859Z,99642.78
2023-04-02T12:12:01.674Z,99640.38
2023-04-02T12:14:42.359Z,99644.75
2023-04-02T12:16:02.664Z,99643.16
2023-04-02T12:21:44.811Z,99651.06
2023-04-02T12:23:23.090Z,99643.19
2023-04-02T12:24:40.489Z,99649.50
2023-04-02T12:26:09.220Z,99643.56
2023-04-02T12:27:45.300Z,99644.31
2023-04-02T12:28:56.432Z,99657.41
2023-04-02T12:34:06.012Z,99647.13
2023-04-02T12:39:20.759Z,99639.97
2023-04-02T12:40:28.017Z,99645.50
2023-04-02T12:41:42.962Z,99637.53
2023-04-02T12:42:52.931Z,99648.66
2023-04-02T12:44:39.147Z,99652.66
2023-04-02T12:45:58.790Z,99636.72
2023-04-02T12:47:22.534Z,99642.31
2023-04-02T12:48:32.051Z,99647.84
2023-04-02T12:49:47.057Z,99646.63
2023-04-02T12:50:52.608Z,99639.94
2023-04-02T12:52:12.062Z,99634.72
2023-04-02T12:53:44.723Z,99644.63
2023-04-02T12:55:00.888Z,99647.81
2023-04-02T12:56:29.730Z,99652.56
2023-04-02T12:58:04.959Z,99643.16
2023-04-02T13:01:26.184Z,99633.13
2023-04-02T13:02:51.285Z,99637.47
2023-04-02T13:04:23.520Z,99629.09
2023-04-02T13:05:59.052Z,99633.81
2023-04-02T13:07:36.243Z,99635.88
2023-04-02T13:09:05.649Z,99634.97
2023-04-02T13:10:35.871Z,99639.75
2023-04-02T13:11:57.032Z,99634.13
2023-04-02T13:13:08.340Z,99640.47
2023-04-02T13:14:32.548Z,99646.00
2023-04-02T13:15:38.903Z,99641.19
2023-04-02T13:16:52.713Z,99639.63
2023-04-02T13:18:18.688Z,99640.47
2023-04-02T13:20:17.273Z,99637.19
2023-04-02T13:21:24.166Z,99635.28
2023-04-02T13:22:32.274Z,99645.94
2023-04-02T13:24:58.007Z,99644.41
2023-04-02T13:26:27.921Z,99641.19
2023-04-02T13:27:40.818Z,99641.63
2023-04-02T13:29:12.562Z,99638.00
2023-04-02T13:30:26.233Z,99641.97
2023-04-02T13:31:37.740Z,99642.66
2023-04-02T13:36:21.098Z,99646.75
2023-04-02T13:37:35.340Z,99644.44
2023-04-02T13:38:51.612Z,99642.81
2023-04-02T13:40:25.933Z,99642.03
2023-04-02T13:47:10.205Z,99647.69
2023-04-02T13:48:38.098Z,99637.38
2023-04-02T13:49:42.252Z,99643.31
2023-04-02T13:50:55.966Z,99641.28
2023-04-02T13:52:32.694Z,99643.69
2023-04-02T13:53:51.276Z,99645.28
2023-04-02T13:56:25.661Z,99652.09
2023-04-02T13:57:40.476Z,99646.16
2023-04-02T13:58:55.947Z,99647.72
2023-04-02T14:00:01.777Z,99647.69
2023-04-02T14:01:18.413Z,99646.94
2023-04-02T14:02:55.159Z,99638.22
2023-04-02T14:06:54.611Z,99651.72
2023-04-02T14:08:52.776Z,99645.00
2023-04-02T14:11:24.948Z,99642.25
2023-04-02T14:13:14.894Z,99642.25
2023-04-02T14:14:45.163Z,99646.19
2023-04-02T14:16:26.508Z,99647.03
2023-04-02T14:17:51.998Z,99648.59
2023-04-02T14:19:13.936Z,99644.66
2023-04-02T14:20:38.615Z,99644.28
2023-04-02T14:22:08.902Z,99642.28
2023-04-02T14:23:34.374Z,99643.06
2023-04-02T14:25:19.623Z,99649.81
2023-04-02T14:27:34.015Z,99643.09
2023-04-02T14:28:59.900Z,99650.97
2023-04-02T14:30:33.848Z,99655.72
2023-04-02T14:32:02.618Z,99639.84
2023-04-02T14:34:02.276Z,99638.22
2023-04-02T14:35:24.488Z,99645.34
2023-04-02T14:37:13.794Z,99647.78
2023-04-02T14:38:55.908Z,99647.41
2023-04-02T14:40:56.640Z,99644.63
2023-04-02T14:42:41.946Z,99647.41
2023-04-02T14:44:25.662Z,99642.28
2023-04-02T14:46:05.773Z,99644.63
2023-04-02T14:47:45.816Z,99638.25
2023-04-02T14:49:42.574Z,99649.75
2023-04-02T14:51:09.108Z,99647.03
2023-04-02T14:52:33.737Z,99649.44
2023-04-02T14:53:57.858Z,99645.47
2023-04-02T14:55:29.651Z,99645.41
2023-04-02T14:56:41.478Z,99643.06
2023-04-02T14:57:56.010Z,99644.66
2023-04-02T14:59:40.910Z,99643.91
2023-04-02T15:01:23.510Z,99640.69
2023-04-02T15:02:51.601Z,99652.56
2023-04-02T15:06:26.461Z,99651.47
2023-04-02T15:09:45.955Z,99650.22
2023-04-02T15:11:39.287Z,99646.28
2023-04-02T15:12:55.733Z,99648.66
2023-04-02T15:14:42.244Z,99655.00
2023-04-02T15:15:58.742Z,99645.06
2023-04-02T15:17:11.427Z,99643.91
2023-04-02T15:19:36.850Z,99639.16
2023-04-02T15:23:00.960Z,99652.59
2023-04-02T15:24:24.280Z,99653.81
2023-04-02T15:25:54.093Z,99652.59
2023-04-02T15:27:42.008Z,99653.03
2023-04-02T15:29:01.570Z,99652.69
2023-04-02T15:31:57.585Z,99650.25
2023-04-02T15:33:44.825Z,99657.41
2023-04-02T15:35:45.403Z,99646.72
2023-04-02T15:37:32.786Z,99647.91
2023-04-02T15:38:50.067Z,99647.13
2023-04-02T15:40:37.189Z,99643.16
2023-04-02T15:44:16.229Z,99651.84
2023-04-02T15:46:04.730Z,99650.69
2023-04-02T15:48:15.442Z,99658.63
2023-04-02T15:50:16.537Z,99655.84
2023-04-02T15:51:59.165Z,99659.81
2023-04-02T15:55:24.380Z,99660.59
2023-04-02T15:57:04.383Z,99657.41
2023-04-02T15:58:43.957Z,99658.66
2023-04-02T16:00:29.652Z,99655.06
2023-04-02T16:01:38.654Z,99659.84
2023-04-02T16:03:03.000Z,99659.03
2023-04-02T16:04:39.387Z,99662.19
2023-04-02T16:06:04.999Z,99657.47
2023-04-02T16:09:58.877Z,99672.09
2023-04-02T16:11:15.596Z,99661.44
2023-04-02T16:12:26.740Z,99669.34
2023-04-02T16:17:39.827Z,99673.31
2023-04-02T16:19:34.872Z,99674.53
2023-04-02T16:21:17.289Z,99681.25
2023-04-02T16:24:36.843Z,99682.03
2023-04-02T16:26:33.414Z,99684.38
2023-04-02T16:32:10.489Z,99692.31
2023-04-02T16:34:13.732Z,99703.41
2023-04-02T16:35:43.942Z,99699.81
2023-04-02T16:37:12.193Z,99694.28
2023-04-02T16:38:39.395Z,99690.34
2023-04-02T16:40:13.051Z,99700.22
2023-04-02T16:42:06.612Z,99700.25
2023-04-02T16:45:57.449Z,99704.16
2023-04-02T16:50:23.551Z,99701.78
2023-04-02T16:52:19.114Z,99708.13
2023-04-02T16:54:03.618Z,99704.97
2023-04-02T16:55:24.104Z,99707.34
2023-04-02T16:59:16.248Z,99708.91
2023-04-02T17:01:02.101Z,99708.13
2023-04-02T17:02:43.200Z,99701.78
2023-04-02T17:04:09.612Z,99720.00
2023-04-02T17:05:50.168Z,99710.91
2023-04-02T17:07:07.944Z,99718.03
2023-04-02T17:08:38.825Z,99723.56
2023-04-02T17:09:54.048Z,99714.84
2023-04-02T17:11:39.182Z,99717.22
2023-04-02T17:13:07.321Z,99725.53
2023-04-02T17:14:41.456Z,99724.75
2023-04-02T17:15:56.886Z,99718.44
2023-04-02T17:17:05.914Z,99716.03
2023-04-02T17:18:20.512Z,99716.84
2023-04-02T17:19:27.150Z,99712.50
2023-04-02T17:20:34.851Z,99717.63
2023-04-02T17:21:44.002Z,99717.63
2023-04-02T17:22:52.939Z,99724.75
2023-04-02T17:24:38.718Z,99732.66
2023-04-02T17:25:54.657Z,99726.72
2023-04-02T17:27:05.033Z,99727.09
2023-04-02T17:28:21.690Z,99723.16
2023-04-02T17:29:46.615Z,99730.69
2023-04-02T17:30:55.436Z,99732.66
2023-04-02T17:32:03.770Z,99726.31
2023-04-02T17:33:18.296Z,99727.50
2023-04-02T17:34:24.354Z,99728.69
2023-04-02T17:35:36.206Z,99727.09
2023-04-02T17:37:16.030Z,99732.28
2023-04-02T17:38:32.252Z,99731.06
2023-04-02T17:40:49.730Z,99725.50
2023-04-02T17:42:20.971Z,99726.34
2023-04-02T17:43:48.192Z,99734.22
2023-04-02T17:44:56.382Z,99733.44
2023-04-02T17:46:09.426Z,99731.06
2023-04-02T17:49:29.306Z,99734.22
2023-04-02T17:51:02.632Z,99733.03
2023-04-02T17:52:37.624Z,99737.41
2023-04-02T17:54:15.432Z,99735.81
2023-04-02T17:55:49.542Z,99736.59
2023-04-02T17:57:29.091Z,99732.63
2023-04-02T17:59:13.711Z,99744.91
2023-04-02T18:00:46.441Z,99738.56
2023-04-02T18:02:10.626Z,99737.38
2023-04-02T18:03:30.044Z,99747.66
2023-04-02T18:04:45.027Z,99745.69
2023-04-02T18:05:56.618Z,99745.28
2023-04-02T18:07:36.166Z,99743.69
2023-04-02T18:08:55.884Z,99742.53
2023-04-02T18:10:17.364Z,99742.16
2023-04-02T18:11:43.576Z,99750.84
2023-04-02T18:13:13.192Z,99753.22
2023-04-02T18:14:36.162Z,99742.53
2023-04-02T18:15:38.094Z,99748.47
2023-04-02T18:17:06.689Z,99744.50
2023-04-02T18:18:49.910Z,99744.50
2023-04-02T18:19:58.857Z,99742.94
2023-04-02T18:23:04.899Z,99748.84
2023-04-02T18:24:30.366Z,99746.88
2023-04-02T18:25:57.864Z,99746.88
2023-04-02T18:27:25.218Z,99749.63
2023-04-02T18:28:43.517Z,99755.56
2023-04-02T18:30:34.230Z,99751.22
2023-04-02T18:31:58.243Z,99752.00
2023-04-02T18:33:38.821Z,99754.38
2023-04-02T18:35:32.604Z,99748.84
2023-04-02T18:37:08.052Z,99757.94
2023-04-02T18:38:27.493Z,99755.56
2023-04-02T18:40:26.208Z,99750.81
2023-04-02T18:41:43.530Z,99750.03
2023-04-02T18:43:11.403Z,99749.63
2023-04-02T18:44:34.087Z,99753.97
2023-04-02T18:46:06.637Z,99751.63
2023-04-02T18:47:40.270Z,99754.78
2023-04-02T18:49:03.812Z,99757.13
2023-04-02T18:50:25.272Z,99758.31
2023-04-02T18:51:38.503Z,99757.91
2023-04-02T18:52:53.039Z,99758.69
2023-04-02T18:54:08.751Z,99753.16
2023-04-02T18:55:36.289Z,99762.66
2023-04-02T18:56:41.647Z,99757.53
2023-04-02T18:57:52.760Z,99762.66
2023-04-02T18:59:23.764Z,99759.88
2023-04-02T19:00:40.940Z,99755.50
2023-04-02T19:01:52.984Z,99761.88
2023-04-02T19:03:29.443Z,99760.66
2023-04-02T19:04:38.544Z,99757.13
2023-04-02T19:05:56.839Z,99758.72
2023-04-02T19:07:23.533Z,99766.22
2023-04-02T19:08:33.513Z,99769.00
2023-04-02T19:09:43.225Z,99769.78
2023-04-02T19:10:52.518Z,99774.50
2023-04-02T19:11:55.682Z,99770.56
2023-04-02T19:13:01.478Z,99762.63
2023-04-02T19:14:31.555Z,99773.72
2023-04-02T19:15:57.285Z,99763.84
2023-04-02T19:17:33.107Z,99772.16
2023-04-02T19:19:13.595Z,99768.97
2023-04-02T19:23:02.755Z,99771.34
2023-04-02T19:24:42.301Z,99760.28
2023-04-02T19:26:19.388Z,99764.22
2023-04-02T19:27:56.478Z,99766.22
2023-04-02T19:29:10.854Z,99765.81
2023-04-02T19:30:38.793Z,99770.94
2023-04-02T19:32:08.457Z,99768.16
2023-04-02T19:33:38.432Z,99772.09
2023-04-02T19:34:53.952Z,99768.94
2023-04-02T19:36:21.670Z,99768.94
2023-04-02T19:37:53.264Z,99767.38
2023-04-02T19:39:03.228Z,99765.00
2023-04-02T19:40:46.723Z,99765.78
2023-04-02T19:42:07.727Z,99765.38
2023-04-02T19:43:12.968Z,99765.38
2023-04-02T19:44:17.203Z,99757.06
2023-04-02T19:45:21.335Z,99769.75
2023-04-02T19:46:26.710Z,99775.25
2023-04-02T19:47:29.454Z,99780.03
2023-04-02T19:48:47.596Z,99771.31
2023-04-02T19:49:51.136Z,99770.53
2023-04-02T19:50:55.222Z,99774.47
2023-04-02T19:51:59.475Z,99776.06
2023-04-02T19:53:09.523Z,99775.66
2023-04-02T19:54:13.445Z,99776.44
2023-04-02T19:55:18.060Z,99776.06
2023-04-02T19:56:24.769Z,99778.78
2023-04-02T19:57:30.923Z,99780.38
2023-04-02T19:58:35.476Z,99780.00
2023-04-02T19:59:45.619Z,99784.72
2023-04-02T20:00:49.212Z,99784.72
2023-04-02T20:01:56.520Z,99786.28
2023-04-02T20:03:02.246Z,99784.34
2023-04-02T20:04:09.458Z,99784.34
2023-04-02T20:05:16.845Z,99784.34
2023-04-02T20:06:21.852Z,99783.97
2023-04-02T20:07:34.713Z,99783.16
2023-04-02T20:08:39.071Z,99777.25
2023-04-02T20:09:45.075Z,99783.97
2023-04-02T20:10:50.559Z,99788.69
2023-04-02T20:11:56.716Z,99789.09
2023-04-02T20:13:01.730Z,99779.59
2023-04-02T20:14:46.398Z,99785.53
2023-04-02T20:16:06.455Z,99782.34
2023-04-02T20:17:12.273Z,99780.00
2023-04-02T20:18:22.037Z,99781.16
2023-04-02T20:19:27.329Z,99774.03
2023-04-02T20:21:00.833Z,99779.97
2023-04-02T20:22:05.190Z,99775.22
2023-04-02T20:23:47.905Z,99776.03
2023-04-02T20:24:53.530Z,99778.41
2023-04-02T20:26:25.256Z,99779.97
2023-04-02T20:27:36.578Z,99791.06
2023-04-02T20:28:48.610Z,99784.72
2023-04-02T20:29:57.269Z,99786.31
2023-04-02T20:31:12.646Z,99778.78
2023-04-02T20:32:18.407Z,99781.16
2023-04-02T20:33:25.235Z,99782.31
2023-04-02T20:34:31.458Z,99787.84
2023-04-02T20:35:40.516Z,99791.00
2023-04-02T20:36:46.639Z,99785.50
2023-04-02T20:37:49.038Z,99788.69
2023-04-02T20:38:56.848Z,99785.50
2023-04-02T20:40:07.594Z,99787.88
2023-04-02T20:41:16.526Z,99791.06
2023-04-02T20:42:22.659Z,99785.50
2023-04-02T20:43:29.255Z,99786.25
2023-04-02T20:44:35.691Z,99785.50
2023-04-02T20:45:52.106Z,99788.69
2023-04-02T20:47:04.739Z,99790.22
2023-04-02T20:48:37.517Z,99786.66
2023-04-02T20:49:53.184Z,99796.53
2023-04-02T20:51:08.852Z,99788.66
2023-04-02T20:52:16.567Z,99784.72
2023-04-02T20:53:20.759Z,99782.69
2023-04-02T20:54:27.404Z,99773.59
2023-04-02T20:55:53.523Z,99782.69
2023-04-02T20:57:01.168Z,99783.09
2023-04-02T20:58:10.624Z,99783.06
2023-04-02T20:59:17.519Z,99774.41
2023-04-02T21:00:31.264Z,99777.56
2023-04-02T21:01:39.302Z,99783.06
2023-04-02T21:02:44.451Z,99779.13
2023-04-02T21:03:55.949Z,99785.44
2023-04-02T21:05:06.827Z,99781.06
2023-04-02T21:06:43.784Z,99779.13
2023-04-02T21:07:53.880Z,99785.50
2023-04-02T21:09:07.755Z,99782.28
2023-04-02T21:10:13.549Z,99772.78
2023-04-02T21:11:22.721Z,99778.38
2023-04-02T21:12:40.834Z,99782.69
2023-04-02T21:13:57.698Z,99779.50
2023-04-02T21:15:14.369Z,99784.69
2023-04-02T21:16:38.650Z,99783.84
2023-04-02T21:17:51.728Z,99777.56
2023-04-02T21:18:56.148Z,99779.13
2023-04-02T21:20:05.474Z,99783.88
2023-04-02T21:21:10.400Z,99782.25
2023-04-02T21:22:17.308Z,99781.84
2023-04-02T21:23:22.252Z,99784.59
2023-04-02T21:24:34.142Z,99778.63
2023-04-02T21:26:06.579Z,99781.78
2023-04-02T21:27:14.538Z,99784.59
2023-04-02T21:28:21.848Z,99787.78
2023-04-02T21:29:28.226Z,99794.09
2023-04-02T21:30:41.699Z,99787.00
2023-04-02T21:31:50.914Z,99792.91
2023-04-02T21:33:00.106Z,99790.13
2023-04-02T21:34:05.507Z,99796.47
2023-04-02T21:35:10.444Z,99795.66
2023-04-02T21:36:31.077Z,99790.13
2023-04-02T21:37:37.100Z,99793.31
2023-04-02T21:38:52.630Z,99803.63
2023-04-02T21:39:59.934Z,99790.53
2023-04-02T21:41:21.792Z,99798.84
2023-04-02T21:42:30.304Z,99791.31
2023-04-02T21:43:45.346Z,99790.53
2023-04-02T21:44:57.894Z,99798.84
2023-04-02T21:46:09.813Z,99798.06
2023-04-02T21:47:15.914Z,99798.84
2023-04-02T21:48:25.971Z,99798.44
2023-04-02T21:49:30.882Z,99797.22
2023-04-02T21:50:38.540Z,99796.06
2023-04-02T21:51:46.315Z,99794.88
2023-04-02T21:52:55.904Z,99799.63
2023-04-02T21:54:01.027Z,99792.47
2023-04-02T21:55:06.917Z,99794.06
2023-04-02T21:56:22.215Z,99803.53
2023-04-02T21:57:31.526Z,99797.63
2023-04-02T21:58:39.444Z,99792.91
2023-04-02T21:59:43.334Z,99800.41
2023-04-02T22:00:49.083Z,99803.59
2023-04-02T22:01:56.916Z,99804.38
2023-04-02T22:03:08.833Z,99803.59
2023-04-02T22:04:26.502Z,99805.59
2023-04-02T22:05:32.553Z,99799.66
2023-04-02T22:06:44.559Z,99801.28
2023-04-02T22:07:50.959Z,99800.09
2023-04-02T22:08:59.199Z,99806.03
2023-04-02T22:10:03.617Z,99794.97
2023-04-02T22:11:12.489Z,99801.31
2023-04-02T22:12:18.773Z,99795.78
2023-04-02T22:13:22.237Z,99807.66
2023-04-02T22:14:39.378Z,99800.53
2023-04-02T22:15:45.711Z,99807.66
2023-04-02T22:16:51.447Z,99808.06
2023-04-02T22:17:56.654Z,99796.19
2023-04-02T22:19:02.602Z,99799.75
2023-04-02T22:20:09.676Z,99795.81
2023-04-02T22:21:15.531Z,99801.34
2023-04-02T22:22:35.149Z,99801.31
2023-04-02T22:23:41.217Z,99794.22
2023-04-02T22:24:48.044Z,99800.53
2023-04-02T22:25:56.651Z,99802.09
2023-04-02T22:27:03.799Z,99803.25
2023-04-02T22:28:10.706Z,99806.03
2023-04-02T22:29:16.998Z,99799.34
2023-04-02T22:30:26.823Z,99806.03
2023-04-02T22:32:57.404Z,99803.72
2023-04-02T22:34:01.281Z,99801.72
2023-04-02T22:35:07.517Z,99802.91
2023-04-02T22:36:18.438Z,99800.56
2023-04-02T22:37:24.643Z,99795.81
2023-04-02T22:38:30.025Z,99798.53
2023-04-02T22:39:33.617Z,99798.53
2023-04-02T22:40:51.255Z,99803.72
2023-04-02T22:41:58.213Z,99801.34
2023-04-02T22:43:03.212Z,99802.91
2023-04-02T22:44:08.641Z,99799.75
2023-04-02T22:45:43.383Z,99795.81
2023-04-02T22:46:53.040Z,99801.31
2023-04-02T22:48:00.572Z,99799.38
2023-04-02T22:49:11.344Z,99798.53
2023-04-02T22:50:27.483Z,99793.81
2023-04-02T22:51:34.889Z,99805.69
2023-04-02T22:52:46.449Z,99801.31
2023-04-02T22:53:57.049Z,99802.06
2023-04-02T22:55:02.341Z,99802.88
2023-04-02T22:56:13.525Z,99801.25
2023-04-02T22:57:28.254Z,99802.44
2023-04-02T22:58:37.064Z,99796.88
2023-04-02T22:59:44.460Z,99802.03
2023-04-02T23:00:49.918Z,99803.63
2023-04-02T23:02:00.559Z,99802.84
2023-04-02T23:03:05.676Z,99797.66
2023-04-02T23:04:15.734Z,99805.63
2023-04-02T23:05:20.159Z,99806.81
2023-04-02T23:06:25.949Z,99800.47
2023-04-02T23:07:30.293Z,99803.63
2023-04-02T23:08:36.530Z,99809.16
2023-04-02T23:09:43.429Z,99804.03
2023-04-02T23:10:53.943Z,99800.81
2023-04-02T23:12:02.862Z,99802.84
2023-04-02T23:13:09.591Z,99808.38
2023-04-02T23:14:16.828Z,99804.41
2023-04-02T23:15:28.970Z,99805.59
2023-04-02T23:16:40.234Z,99808.38
2023-04-02T23:17:48.367Z,99807.56
2023-04-02T23:18:56.032Z,99802.78
2023-04-02T23:20:24.484Z,99805.09
2023-04-02T23:21:30.679Z,99808.28
2023-04-02T23:22:35.538Z,99804.34
2023-04-02T23:23:43.294Z,99806.25
2023-04-02T23:24:49.852Z,99806.63
2023-04-02T23:26:15.492Z,99811.41
2023-04-02T23:27:19.412Z,99814.56
2023-04-02T23:28:23.863Z,99808.69
2023-04-02T23:29:27.258Z,99810.63
2023-04-02T23:30:36.963Z,99800.34
2023-04-02T23:31:50.530Z,99806.31
2023-04-02T23:32:55.803Z,99805.13
2023-04-02T23:34:03.277Z,99802.38
2023-04-02T23:35:08.757Z,99806.72
2023-04-02T23:36:19.995Z,99804.72
2023-04-02T23:37:26.310Z,99806.28
2023-04-02T23:38:31.646Z,99796.84
2023-04-02T23:39:37.797Z,99807.88
2023-04-02T23:40:45.231Z,99800.72
2023-04-02T23:41:51.847Z,99802.38
2023-04-02T23:42:59.400Z,99802.00
2023-04-02T23:44:04.949Z,99800.78
2023-04-02T23:45:18.347Z,99802.38
2023-04-02T23:46:25.978Z,99793.63
2023-04-02T23:47:36.102Z,99802.75
2023-04-02T23:48:42.495Z,99794.44
2023-04-02T23:49:58.562Z,99801.53
2023-04-02T23:51:05.831Z,99800.34
2023-04-02T23:52:14.359Z,99792.44
2023-04-02T23:53:23.542Z,99796.00
2023-04-02T23:54:36.784Z,99793.66
2023-04-02T23:55:42.109Z,99800.38
2023-04-02T23:56:48.049Z,99797.22
2023-04-02T23:57:55.410Z,99799.94
2023-04-02T23:59:02.156Z,99798.00
